Time;durP1;ratioP1;P1;durP2;ratioP2;P2;SDS_P1;SDS_P2;PMS_P1;PMS_P2;Temp;Humidity;BMP_temperature;BMP_pressure;BME280_temperature;BME280_humidity;BME280_pressure;Samples;Min_cycle;Max_cycle;Signal;HPM_P1;HPM_P2
2022/02/01 00:00:59;;;;;;;8.02;2.20;;;14.30;65.70;;;;;;4194275;28;20051;-60
2022/02/01 00:03:23;;;;;;;13.65;2.83;;;14.30;66.70;;;;;;4182319;28;20068;-60
2022/02/01 00:05:51;;;;;;;8.43;1.83;;;14.40;67.20;;;;;;4178029;28;20493;-60
2022/02/01 00:08:20;;;;;;;13.20;2.40;;;14.50;66.90;;;;;;4176612;28;20475;-60
2022/02/01 00:10:51;;;;;;;11.80;2.35;;;14.50;66.70;;;;;;4177424;28;20044;-60
2022/02/01 00:13:23;;;;;;;;;;;14.70;66.40;;;;;;4177730;28;20374;-60
2022/02/01 00:34:32;;;;;;;16.63;2.30;;;14.80;65.60;;;;;;4194143;28;20136;-60
2022/02/01 00:36:59;;;;;;;12.63;2.90;;;14.90;65.50;;;;;;4186412;28;20104;-61
2022/02/01 00:39:29;;;;;;;14.48;2.63;;;14.80;65.50;;;;;;4175837;28;20036;-60
2022/02/01 00:41:53;;;;;;;15.60;3.13;;;14.80;65.60;;;;;;4177034;28;20053;-61
2022/02/01 00:44:16;;;;;;;13.48;2.40;;;14.80;65.70;;;;;;4177376;28;20055;-61
2022/02/01 00:46:39;;;;;;;12.32;2.78;;;14.80;66.00;;;;;;4177297;28;20134;-60
2022/02/01 00:49:01;;;;;;;16.90;3.38;;;14.80;66.80;;;;;;4179393;28;20106;-60
2022/02/01 00:51:24;;;;;;;6.78;2.00;;;14.90;65.90;;;;;;4188126;28;20063;-61
2022/02/01 00:53:47;;;;;;;12.00;3.17;;;15.00;65.70;;;;;;4193725;28;20054;-60
2022/02/01 00:56:10;;;;;;;11.00;2.53;;;15.00;65.60;;;;;;4193664;28;20039;-60
2022/02/01 00:58:32;;;;;;;15.85;2.58;;;15.00;65.40;;;;;;4193215;28;20058;-61
2022/02/01 01:00:54;;;;;;;14.07;2.63;;;15.00;65.30;;;;;;4187065;28;20412;-61
2022/02/01 01:03:16;;;;;;;11.27;2.58;;;15.00;65.40;;;;;;4177405;28;20048;-60
2022/02/01 01:05:38;;;;;;;12.20;2.60;;;15.00;65.40;;;;;;4182570;28;20139;-64
2022/02/01 01:08:02;;;;;;;12.77;2.78;;;15.00;65.30;;;;;;4190524;28;20053;-65
2022/02/01 01:10:24;;;;;;;11.80;2.30;;;15.00;65.30;;;;;;4176570;28;20052;-63
2022/02/01 01:12:55;;;;;;;8.18;1.90;;;15.00;65.30;;;;;;4176590;28;20103;-61
2022/02/01 01:15:23;;;;;;;9.63;2.35;;;15.00;65.40;;;;;;4176163;28;20484;-61
2022/02/01 01:44:35;;;;;;;10.93;2.15;;;15.30;64.80;;;;;;4176400;28;20107;-61
2022/02/01 01:54:57;;;;;;;19.33;2.75;;;15.40;64.90;;;;;;4176243;28;20055;-60
2022/02/01 01:57:19;;;;;;;12.60;2.35;;;15.50;64.80;;;;;;4177213;28;20071;-60
2022/02/01 01:59:41;;;;;;;17.08;2.42;;;15.40;64.70;;;;;;4176273;28;20052;-60
2022/02/01 02:02:04;;;;;;;11.60;2.17;;;15.50;64.80;;;;;;4181003;28;20087;-60
2022/02/01 02:04:26;;;;;;;11.88;1.83;;;15.50;64.70;;;;;;4192879;28;20083;-61
2022/02/01 02:06:48;;;;;;;9.95;1.98;;;15.50;64.50;;;;;;4192758;28;20139;-60
2022/02/01 02:09:11;;;;;;;11.43;2.60;;;15.60;64.60;;;;;;4192746;28;20045;-61
2022/02/01 02:11:42;;;;;;;10.85;2.15;;;15.60;64.50;;;;;;4191462;28;20060;-60
2022/02/01 02:14:18;;;;;;;10.13;2.30;;;15.60;64.50;;;;;;4183984;28;20209;-60
2022/02/01 02:16:41;;;;;;;8.25;1.85;;;15.60;64.50;;;;;;4191620;28;20045;-61
2022/02/01 02:19:04;;;;;;;12.23;2.10;;;15.60;64.50;;;;;;4192495;28;20087;-60
2022/02/01 02:21:27;;;;;;;8.65;2.45;;;15.60;64.40;;;;;;4192523;28;20048;-60
2022/02/01 02:23:49;;;;;;;10.50;2.15;;;15.60;64.40;;;;;;4192286;28;20048;-61
2022/02/01 02:26:13;;;;;;;9.65;2.60;;;15.60;64.40;;;;;;4184373;28;20399;-60
2022/02/01 02:28:36;;;;;;;10.32;2.13;;;15.60;64.40;;;;;;4188863;28;20045;-60
2022/02/01 02:31:00;;;;;;;16.40;2.08;;;15.60;64.60;;;;;;4191527;28;20144;-60
2022/02/01 02:33:22;;;;;;;9.23;1.80;;;15.50;64.60;;;;;;4192647;28;20140;-60
2022/02/01 02:35:55;;;;;;;7.95;1.77;;;15.50;64.80;;;;;;4190999;28;20052;-61
2022/02/01 02:38:30;;;;;;;7.72;2.05;;;15.50;64.80;;;;;;4191558;28;20412;-60
2022/02/01 02:41:04;;;;;;;10.45;2.47;;;15.40;65.00;;;;;;4192073;28;20098;-60
2022/02/01 02:46:05;;;;;;;7.25;1.90;;;15.50;65.90;;;;;;4192197;28;20460;-60
2022/02/01 02:48:28;;;;;;;11.40;1.70;;;15.50;65.00;;;;;;4189855;28;20125;-60
2022/02/01 02:50:50;;;;;;;8.30;1.58;;;15.50;64.90;;;;;;4192325;28;20481;-61
2022/02/01 02:53:12;;;;;;;7.45;1.65;;;15.50;65.00;;;;;;4192454;28;20115;-60
2022/02/01 02:55:35;;;;;;;6.90;1.40;;;15.50;65.00;;;;;;4192218;28;20131;-61
2022/02/01 02:57:57;;;;;;;4.40;1.38;;;15.50;65.10;;;;;;4192048;28;20097;-61
2022/02/01 03:00:19;;;;;;;8.32;1.65;;;15.50;65.20;;;;;;4176099;28;20128;-61
2022/02/01 03:02:41;;;;;;;8.60;1.40;;;15.50;65.00;;;;;;4175676;28;20059;-60
2022/02/01 03:05:03;;;;;;;7.18;1.83;;;15.60;64.80;;;;;;4177013;28;20451;-60
2022/02/01 03:07:26;;;;;;;6.10;1.35;;;15.60;64.50;;;;;;4175571;28;20053;-60
2022/02/01 03:09:48;;;;;;;3.92;1.50;;;15.70;64.40;;;;;;4176215;28;20037;-60
2022/02/01 03:12:17;;;;;;;8.00;1.60;;;15.70;64.30;;;;;;4192858;28;20133;-60
2022/02/01 03:14:49;;;;;;;7.05;1.63;;;15.80;64.00;;;;;;4194684;28;20054;-61
2022/02/01 03:17:19;;;;;;;7.53;1.30;;;15.80;63.70;;;;;;4194695;28;20548;-61
2022/02/01 03:19:49;;;;;;;4.32;1.15;;;15.90;63.70;;;;;;4195441;28;20537;-60
2022/02/01 03:22:11;;;;;;;6.80;1.35;;;15.80;64.50;;;;;;4182840;28;20136;-60
2022/02/01 03:24:33;;;;;;;5.43;1.23;;;15.80;63.70;;;;;;4192579;28;20559;-60
2022/02/01 03:26:56;;;;;;;4.28;1.05;;;15.80;64.60;;;;;;4194872;28;20052;-60
2022/02/01 03:29:19;;;;;;;6.90;1.50;;;15.80;63.90;;;;;;4194529;28;20056;-60
2022/02/01 03:31:41;;;;;;;7.57;1.90;;;15.80;64.00;;;;;;4184115;28;20045;-60
2022/02/01 03:34:03;;;;;;;8.45;1.45;;;15.80;63.90;;;;;;4178380;28;20057;-60
2022/02/01 03:36:25;;;;;;;2.58;1.00;;;15.80;63.90;;;;;;4178466;28;20037;-60
2022/02/01 03:38:47;;;;;;;3.97;1.13;;;15.80;63.90;;;;;;4185232;28;20052;-60
2022/02/01 03:41:09;;;;;;;6.20;1.00;;;15.80;64.00;;;;;;4189351;28;20090;-60
2022/02/01 03:43:32;;;;;;;4.28;1.20;;;15.80;64.10;;;;;;4178365;28;20075;-60
2022/02/01 03:45:55;;;;;;;5.60;1.00;;;15.80;64.20;;;;;;4178131;28;20052;-60
2022/02/01 03:48:17;;;;;;;5.18;1.10;;;15.70;64.30;;;;;;4178427;28;20048;-60
2022/02/01 03:50:39;;;;;;;3.25;0.93;;;15.70;64.60;;;;;;4192801;28;20040;-60
2022/02/01 03:53:02;;;;;;;5.80;0.98;;;15.80;64.50;;;;;;4194671;28;20052;-60
2022/02/01 03:55:24;;;;;;;6.03;1.05;;;15.90;64.20;;;;;;4188346;28;20053;-60
2022/02/01 03:57:46;;;;;;;3.58;0.98;;;15.90;63.80;;;;;;4177507;28;20052;-60
2022/02/01 04:00:09;;;;;;;6.05;1.50;;;16.00;63.60;;;;;;4178080;28;20135;-60
2022/02/01 04:02:36;;;;;;;4.88;0.98;;;16.00;63.40;;;;;;4178019;28;20049;-60
2022/02/01 04:04:58;;;;;;;4.70;1.10;;;16.00;63.30;;;;;;4177561;28;20049;-60
2022/02/01 04:07:21;;;;;;;4.20;1.10;;;16.00;63.30;;;;;;4177963;28;20056;-60
2022/02/01 04:09:43;;;;;;;3.40;0.77;;;16.00;63.50;;;;;;4177141;28;20776;-60
2022/02/01 04:12:07;;;;;;;7.82;1.15;;;16.00;63.70;;;;;;4177191;28;20102;-60
2022/02/01 04:14:32;;;;;;;2.08;0.80;;;16.00;63.50;;;;;;4193797;28;20095;-60
2022/02/01 04:16:55;;;;;;;5.70;1.25;;;16.00;63.50;;;;;;4185682;28;20056;-60
2022/02/01 04:19:19;;;;;;;5.70;1.23;;;16.00;63.40;;;;;;4177672;28;20076;-60
2022/02/01 04:21:46;;;;;;;4.93;1.13;;;16.00;63.30;;;;;;4175890;28;20110;-60
2022/02/01 04:24:08;;;;;;;6.32;1.10;;;16.00;63.40;;;;;;4177707;28;20098;-60
2022/02/01 04:26:30;;;;;;;3.55;0.80;;;15.90;63.60;;;;;;4181424;28;20467;-60
2022/02/01 04:28:52;;;;;;;4.07;1.17;;;15.90;63.70;;;;;;4193307;28;20048;-60
2022/02/01 04:31:14;;;;;;;6.43;1.25;;;15.90;63.80;;;;;;4177702;28;20489;-60
2022/02/01 04:33:36;;;;;;;3.45;1.17;;;15.90;63.90;;;;;;4177201;28;20033;-60
2022/02/01 04:36:00;;;;;;;5.03;1.00;;;16.00;63.70;;;;;;4177034;28;20147;-60
2022/02/01 04:38:22;;;;;;;4.93;0.95;;;16.10;63.60;;;;;;4179318;28;20071;-60
2022/02/01 04:40:44;;;;;;;4.65;1.42;;;16.10;63.30;;;;;;4177141;28;20511;-60
2022/02/01 04:43:06;;;;;;;4.45;1.25;;;16.10;63.30;;;;;;4177017;28;20502;-60
2022/02/01 04:45:28;;;;;;;5.20;1.25;;;16.20;63.20;;;;;;4176776;28;20049;-60
2022/02/01 04:47:51;;;;;;;5.65;1.13;;;16.20;63.00;;;;;;4177291;28;20049;-60
2022/02/01 04:50:16;;;;;;;8.52;1.35;;;16.20;63.00;;;;;;4182111;28;20047;-60
2022/02/01 04:52:40;;;;;;;2.00;1.08;;;16.20;63.00;;;;;;4193849;28;20062;-60
2022/02/01 04:55:02;;;;;;;5.97;1.17;;;16.20;63.00;;;;;;4193447;28;20560;-60
2022/02/01 04:57:24;;;;;;;5.88;1.30;;;16.10;63.10;;;;;;4192100;28;20089;-61
2022/02/01 04:59:46;;;;;;;8.93;1.52;;;16.10;63.20;;;;;;4177019;28;20153;-59
2022/02/01 05:02:08;;;;;;;7.25;1.60;;;16.00;63.40;;;;;;4176953;28;20072;-60
2022/02/01 05:04:30;;;;;;;3.85;1.13;;;16.00;64.50;;;;;;4192733;28;20455;-60
2022/02/01 05:06:54;;;;;;;7.95;1.15;;;16.00;63.80;;;;;;4193213;28;20424;-60
2022/02/01 05:09:17;;;;;;;6.50;1.20;;;15.90;63.80;;;;;;4192969;28;20048;-60
2022/02/01 05:11:39;;;;;;;6.75;1.65;;;16.00;63.80;;;;;;4193268;28;20048;-60
2022/02/01 05:14:10;;;;;;;9.68;2.03;;;15.90;63.70;;;;;;4193117;28;20056;-60
2022/02/01 05:16:43;;;;;;;7.45;1.80;;;15.90;63.80;;;;;;4192773;28;20585;-60
2022/02/01 05:19:06;;;;;;;5.65;1.30;;;15.90;64.00;;;;;;4177613;28;20041;-60
2022/02/01 05:21:28;;;;;;;8.10;1.45;;;15.90;64.00;;;;;;4176472;28;20413;-60
2022/02/01 05:23:51;;;;;;;8.30;1.75;;;15.90;64.00;;;;;;4176467;28;20481;-60
2022/02/01 05:26:14;;;;;;;11.30;1.85;;;15.90;64.20;;;;;;4176292;28;20136;-61
2022/02/01 05:28:37;;;;;;;12.02;1.98;;;15.90;64.20;;;;;;4186780;28;20040;-60
2022/02/01 05:31:02;;;;;;;7.53;1.80;;;16.00;64.00;;;;;;4193374;28;20140;-60
2022/02/01 05:33:24;;;;;;;6.57;1.48;;;16.00;63.60;;;;;;4192216;28;20105;-59
2022/02/01 05:35:47;;;;;;;7.63;1.70;;;16.10;63.50;;;;;;4192338;28;20045;-60
2022/02/01 05:38:10;;;;;;;4.82;1.20;;;16.10;63.40;;;;;;4185474;28;20129;-60
2022/02/01 05:40:32;;;;;;;8.07;1.90;;;16.10;63.40;;;;;;4192891;28;20058;-60
2022/02/01 05:43:01;;;;;;;5.68;1.42;;;16.10;63.40;;;;;;4193158;28;20083;-60
2022/02/01 05:45:23;;;;;;;9.25;1.90;;;16.10;63.50;;;;;;4193187;28;20152;-60
2022/02/01 05:47:48;;;;;;;9.52;1.85;;;16.10;63.50;;;;;;4186660;28;20044;-60
2022/02/01 05:50:12;;;;;;;8.85;1.52;;;16.00;63.50;;;;;;4176307;28;20053;-60
2022/02/01 05:52:34;;;;;;;7.55;1.52;;;16.00;63.70;;;;;;4176603;28;20049;-60
2022/02/01 05:54:56;;;;;;;5.45;1.42;;;16.00;63.80;;;;;;4191955;28;20423;-59
2022/02/01 05:57:18;;;;;;;10.10;2.35;;;16.00;63.80;;;;;;4176550;28;20057;-60
2022/02/01 05:59:41;;;;;;;8.27;2.00;;;16.00;63.80;;;;;;4176128;28;20045;-60
2022/02/01 06:02:04;;;;;;;11.13;2.00;;;16.00;63.80;;;;;;4174953;28;20437;-59
2022/02/01 06:04:26;;;;;;;8.75;2.15;;;16.00;63.80;;;;;;4181741;28;20041;-60
2022/02/01 06:06:48;;;;;;;9.48;2.30;;;15.90;63.70;;;;;;4192894;28;20139;-60
2022/02/01 06:09:11;;;;;;;11.57;2.05;;;15.90;63.90;;;;;;4192388;28;20040;-60
2022/02/01 06:11:33;;;;;;;9.45;2.00;;;15.90;64.00;;;;;;4179924;28;20504;-60
2022/02/01 06:13:55;;;;;;;9.88;2.22;;;15.80;64.10;;;;;;4176970;28;20076;-60
2022/02/01 06:16:19;;;;;;;8.68;2.58;;;15.80;64.30;;;;;;4192604;28;20052;-60
2022/02/01 06:18:40;;;;;;;12.20;1.92;;;15.70;64.40;;;;;;4191206;28;20059;-60
2022/02/01 06:21:02;;;;;;;9.70;2.47;;;15.70;64.40;;;;;;4192631;28;20075;-60
2022/02/01 06:23:24;;;;;;;7.95;1.88;;;15.70;64.40;;;;;;4192753;28;20058;-60
2022/02/01 06:25:50;;;;;;;15.43;2.70;;;15.70;64.40;;;;;;4191713;28;20507;-60
2022/02/01 06:28:12;;;;;;;9.75;2.83;;;15.70;64.60;;;;;;4176272;28;20055;-60
2022/02/01 06:30:34;;;;;;;10.95;2.75;;;15.70;64.60;;;;;;4175998;28;20060;-60
2022/02/01 06:32:58;;;;;;;12.25;2.60;;;15.70;65.70;;;;;;4176018;28;20481;-60
2022/02/01 06:35:20;;;;;;;8.23;2.45;;;15.70;64.90;;;;;;4176018;28;20068;-59
2022/02/01 06:37:42;;;;;;;6.25;1.83;;;15.80;64.80;;;;;;4176107;28;20473;-59
2022/02/01 06:40:05;;;;;;;12.38;2.13;;;15.80;64.60;;;;;;4174363;28;20103;-60
2022/02/01 06:42:28;;;;;;;16.10;2.97;;;15.90;64.40;;;;;;4175680;28;20411;-60
2022/02/01 06:44:50;;;;;;;11.80;2.70;;;15.90;64.00;;;;;;4179297;28;20059;-60
2022/02/01 06:47:12;;;;;;;12.23;2.65;;;16.00;63.70;;;;;;4179394;28;20064;-60
2022/02/01 06:49:35;;;;;;;13.30;2.88;;;16.00;63.50;;;;;;4179425;28;20079;-60
2022/02/01 06:51:58;;;;;;;14.68;2.92;;;16.10;63.30;;;;;;4193187;28;20110;-60
2022/02/01 06:54:21;;;;;;;10.38;2.95;;;16.10;63.40;;;;;;4195842;28;20127;-61
2022/02/01 06:56:43;;;;;;;10.77;3.10;;;16.10;63.30;;;;;;4195471;28;20149;-61
2022/02/01 06:59:05;;;;;;;10.65;2.45;;;16.00;63.20;;;;;;4195719;28;20055;-60
2022/02/01 07:01:29;;;;;;;13.65;2.67;;;16.00;63.40;;;;;;4189596;28;20057;-60
2022/02/01 07:03:51;;;;;;;11.57;2.97;;;16.00;63.70;;;;;;4179078;28;20052;-59
2022/02/01 07:06:15;;;;;;;7.72;2.30;;;15.90;63.90;;;;;;4179189;28;20053;-60
2022/02/01 07:08:37;;;;;;;12.38;2.72;;;16.00;63.80;;;;;;4177549;28;20037;-60
2022/02/01 07:11:00;;;;;;;9.00;1.98;;;16.00;63.70;;;;;;4179043;28;20556;-59
2022/02/01 07:13:22;;;;;;;10.05;2.95;;;16.00;63.80;;;;;;4178936;28;20052;-60
2022/02/01 07:15:44;;;;;;;13.80;3.00;;;16.00;64.20;;;;;;4177329;28;20049;-60
2022/02/01 07:18:06;;;;;;;12.65;2.78;;;16.10;64.10;;;;;;4177321;28;20041;-60
2022/02/01 07:20:32;;;;;;;14.38;4.28;;;16.10;63.90;;;;;;4178895;28;20785;-60
2022/02/01 07:22:55;;;;;;;10.23;3.03;;;16.20;63.80;;;;;;4179566;28;20148;-60
2022/02/01 07:25:25;;;;;;;8.13;2.55;;;16.20;63.70;;;;;;4192105;28;20052;-60
2022/02/01 07:27:49;;;;;;;12.90;3.35;;;16.20;63.60;;;;;;4193660;28;20476;-60
2022/02/01 07:30:12;;;;;;;11.80;2.95;;;16.20;63.60;;;;;;4189400;28;20117;-60
2022/02/01 07:32:36;;;;;;;14.68;3.10;;;16.10;63.70;;;;;;4183553;28;20125;-60
2022/02/01 07:34:58;;;;;;;11.95;2.78;;;16.10;63.70;;;;;;4189633;28;20053;-60
2022/02/01 07:37:20;;;;;;;12.20;3.35;;;16.10;63.90;;;;;;4194793;28;20124;-60
2022/02/01 07:39:43;;;;;;;10.93;2.20;;;16.10;63.90;;;;;;4183378;28;20055;-61
2022/02/01 07:42:06;;;;;;;11.93;3.05;;;16.10;63.90;;;;;;4179632;28;20064;-63
2022/02/01 07:44:28;;;;;;;7.20;2.10;;;16.10;63.80;;;;;;4192448;28;20064;-61
2022/02/01 07:46:52;;;;;;;7.20;2.28;;;16.20;64.00;;;;;;4191802;28;20511;-63
2022/02/01 07:49:17;;;;;;;11.93;2.78;;;16.10;63.90;;;;;;4191977;28;20060;-60
2022/02/01 07:51:39;;;;;;;9.13;2.88;;;16.20;63.90;;;;;;4192075;28;20063;-60
2022/02/01 07:54:02;;;;;;;6.70;2.63;;;16.20;63.70;;;;;;4192248;28;20072;-60
2022/02/01 07:56:25;;;;;;;7.15;2.28;;;16.30;63.60;;;;;;4190171;28;20052;-60
2022/02/01 07:58:47;;;;;;;6.30;2.55;;;16.30;63.50;;;;;;4190607;28;20139;-60
2022/02/01 08:01:10;;;;;;;5.93;2.22;;;16.30;63.50;;;;;;4192015;28;20106;-60
2022/02/01 08:03:32;;;;;;;9.55;3.17;;;16.20;63.60;;;;;;4191711;28;20111;-60
2022/02/01 08:05:55;;;;;;;10.30;3.42;;;16.20;63.70;;;;;;4191206;28;20052;-60
2022/02/01 08:08:18;;;;;;;6.50;2.55;;;16.10;64.80;;;;;;4190887;28;20063;-61
2022/02/01 08:10:44;;;;;;;8.32;3.13;;;16.10;64.00;;;;;;4191584;28;20063;-60
2022/02/01 08:18:33;;;;;;;6.63;3.03;;;16.20;64.40;;;;;;4191452;28;20049;-60
2022/02/01 08:20:58;;;;;;;4.25;2.60;;;16.20;64.30;;;;;;4190800;28;20456;-60
2022/02/01 08:23:20;;;;;;;6.85;2.92;;;16.20;64.30;;;;;;4191816;28;20135;-60
2022/02/01 08:25:42;;;;;;;6.50;2.53;;;16.20;64.30;;;;;;4190591;28;20151;-60
2022/02/01 08:28:06;;;;;;;6.93;2.33;;;16.20;64.30;;;;;;4191306;28;20052;-60
2022/02/01 08:30:29;;;;;;;5.78;4.05;;;16.10;64.50;;;;;;4190416;28;20059;-60
2022/02/01 08:32:51;;;;;;;2.38;2.17;;;16.10;64.90;;;;;;4191330;28;20048;-59
2022/02/01 08:35:14;;;;;;;2.80;2.10;;;16.10;65.00;;;;;;4191088;28;20730;-60
2022/02/01 08:37:49;;;;;;;4.78;1.98;;;16.10;65.00;;;;;;4190833;28;20044;-60
2022/02/01 08:40:31;;;;;;;2.05;1.90;;;16.10;65.10;;;;;;4189404;28;20048;-60
2022/02/01 08:42:53;;;;;;;2.40;2.20;;;16.10;65.00;;;;;;4191581;28;20159;-59
2022/02/01 08:45:22;;;;;;;3.78;2.15;;;16.10;65.10;;;;;;4190555;28;20479;-60
2022/02/01 08:47:45;;;;;;;4.97;2.40;;;16.10;65.10;;;;;;4190571;28;20123;-60
2022/02/01 08:50:08;;;;;;;7.93;2.00;;;16.20;65.00;;;;;;4189282;28;20052;-60
2022/02/01 08:52:38;;;;;;;2.30;2.10;;;16.20;64.80;;;;;;4190350;28;20080;-61
2022/02/01 08:55:02;;;;;;;3.35;1.80;;;16.30;64.70;;;;;;4190672;28;20056;-61
2022/02/01 08:57:25;;;;;;;2.15;1.90;;;16.20;64.60;;;;;;4190389;28;20062;-61
2022/02/01 08:59:49;;;;;;;2.00;1.80;;;16.20;65.60;;;;;;4191117;28;20044;-61
2022/02/01 09:02:11;;;;;;;2.38;1.75;;;16.10;65.00;;;;;;4191389;28;20048;-61
2022/02/01 09:04:35;;;;;;;2.03;1.70;;;16.10;65.00;;;;;;4191209;28;20139;-61
2022/02/01 09:06:58;;;;;;;3.35;1.90;;;16.10;65.10;;;;;;4190711;28;20499;-60
2022/02/01 09:09:20;;;;;;;2.08;1.83;;;16.10;65.10;;;;;;4190447;28;20036;-60
2022/02/01 09:11:42;;;;;;;4.32;1.90;;;16.10;65.20;;;;;;4190952;28;20063;-61
2022/02/01 09:14:04;;;;;;;4.00;1.55;;;16.10;65.20;;;;;;4191139;28;20045;-61
2022/02/01 09:16:26;;;;;;;3.20;1.63;;;16.00;65.30;;;;;;4190867;28;20048;-60
2022/02/01 09:18:49;;;;;;;1.55;1.45;;;16.00;65.40;;;;;;4190874;28;20135;-60
2022/02/01 09:21:13;;;;;;;2.10;1.38;;;16.00;65.50;;;;;;4191141;28;20049;-60
2022/02/01 09:23:36;;;;;;;2.03;1.30;;;15.90;65.70;;;;;;4190538;28;20044;-60
2022/02/01 09:25:58;;;;;;;1.58;1.35;;;15.90;65.80;;;;;;4188981;28;20084;-60
2022/02/01 09:28:20;;;;;;;1.10;1.10;;;16.00;65.80;;;;;;4190737;28;20052;-60
2022/02/01 09:30:48;;;;;;;1.20;1.10;;;16.00;65.60;;;;;;4157565;28;20646;-60
2022/02/01 09:33:10;;;;;;;1.90;1.77;;;16.00;65.50;;;;;;4157939;28;20087;-60
2022/02/01 09:35:32;;;;;;;1.00;1.00;;;16.00;65.50;;;;;;4157642;28;20052;-60
2022/02/01 09:37:56;;;;;;;2.03;1.30;;;16.00;65.60;;;;;;4157794;28;20065;-60
2022/02/01 09:40:38;;;;;;;1.52;1.27;;;16.00;65.60;;;;;;4156376;28;20121;-60
2022/02/01 09:43:00;;;;;;;1.73;1.30;;;16.00;65.60;;;;;;4156598;28;20474;-60
2022/02/01 09:45:22;;;;;;;1.95;1.58;;;16.00;65.60;;;;;;4156760;28;20084;-60
2022/02/01 09:48:02;;;;;;;0.90;0.90;;;16.00;65.80;;;;;;4157175;28;20154;-60
2022/02/01 09:50:28;;;;;;;1.15;0.80;;;16.00;65.90;;;;;;4157032;28;20049;-60
2022/02/01 09:52:50;;;;;;;0.85;0.85;;;16.00;65.80;;;;;;4156949;28;20080;-60
2022/02/01 09:55:14;;;;;;;0.80;0.80;;;16.00;65.90;;;;;;4156186;28;20050;-60
2022/02/01 09:57:37;;;;;;;1.13;0.70;;;15.90;65.90;;;;;;4157243;28;20052;-59
2022/02/01 10:00:00;;;;;;;0.52;0.52;;;15.90;66.00;;;;;;4155248;28;20393;-59
2022/02/01 10:02:37;;;;;;;0.47;0.47;;;15.90;66.20;;;;;;4157799;28;20048;-64
2022/02/01 10:05:03;;;;;;;0.63;0.63;;;15.90;66.30;;;;;;4159531;28;20057;-58
2022/02/01 10:07:25;;;;;;;3.97;0.60;;;15.90;66.80;;;;;;4152650;28;20049;-60
2022/02/01 10:09:52;;;;;;;0.85;0.82;;;15.90;67.50;;;;;;4151123;28;20551;-59
2022/02/01 10:12:17;;;;;;;0.73;0.57;;;16.00;67.20;;;;;;4143288;28;20128;-59
2022/02/01 10:14:42;;;;;;;1.33;1.17;;;16.10;66.90;;;;;;4143669;28;20052;-59
2022/02/01 10:17:08;;;;;;;0.68;0.47;;;16.10;66.80;;;;;;4143171;28;20049;-60
2022/02/01 10:19:30;;;;;;;0.80;0.40;;;16.10;66.70;;;;;;4142480;28;20045;-59
2022/02/01 10:21:54;;;;;;;0.47;0.47;;;16.00;66.70;;;;;;4142664;28;20050;-60
2022/02/01 10:24:27;;;;;;;1.85;0.47;;;16.00;66.90;;;;;;4143654;28;20108;-60
2022/02/01 10:26:52;;;;;;;0.70;0.70;;;16.00;66.90;;;;;;4148838;28;20049;-60
2022/02/01 10:29:22;;;;;;;1.95;0.60;;;16.10;66.70;;;;;;4168707;28;20053;-60
2022/02/01 10:31:48;;;;;;;0.82;0.70;;;16.20;66.50;;;;;;4192668;28;20040;-60
2022/02/01 10:34:40;;;;;;;0.95;0.55;;;16.20;66.20;;;;;;4192589;28;20502;-59
2022/02/01 10:37:19;;;;;;;1.35;0.60;;;16.20;66.20;;;;;;4192059;28;20437;-60
2022/02/01 10:39:42;;;;;;;0.75;0.30;;;16.10;67.20;;;;;;4192387;28;20860;-60
2022/02/01 10:42:06;;;;;;;0.43;0.43;;;16.10;66.40;;;;;;4192677;28;20143;-60
2022/02/01 10:44:41;;;;;;;0.75;0.57;;;16.00;66.70;;;;;;4187537;28;20080;-60
2022/02/01 10:47:04;;;;;;;0.30;0.30;;;16.00;67.00;;;;;;4175771;28;20503;-60
2022/02/01 10:49:45;;;;;;;2.08;0.45;;;16.00;66.80;;;;;;4175642;28;20110;-60
2022/02/01 10:52:10;;;;;;;2.38;0.75;;;16.00;66.80;;;;;;4175991;28;20492;-60
2022/02/01 10:54:39;;;;;;;0.40;0.40;;;16.00;66.70;;;;;;4175701;28;20064;-61
2022/02/01 10:57:07;;;;;;;0.40;0.40;;;16.10;66.90;;;;;;4175834;28;20132;-60
2022/02/01 10:59:30;;;;;;;0.82;0.52;;;16.10;66.90;;;;;;4175707;28;20052;-61
2022/02/01 11:01:55;;;;;;;0.63;0.63;;;16.10;66.80;;;;;;4189109;28;20052;-60
2022/02/01 11:04:21;;;;;;;1.27;0.60;;;16.20;66.60;;;;;;4192306;28;20052;-60
2022/02/01 11:06:43;;;;;;;0.77;0.43;;;16.20;66.20;;;;;;4192318;28;20107;-60
2022/02/01 11:09:06;;;;;;;0.75;0.50;;;16.30;66.00;;;;;;4192086;28;20071;-60
2022/02/01 11:11:28;;;;;;;0.57;0.57;;;16.30;65.90;;;;;;4192191;28;20059;-60
2022/02/01 11:13:50;;;;;;;2.95;0.70;;;16.30;65.90;;;;;;4192100;28;20756;-60
2022/02/01 11:16:18;;;;;;;6.18;1.77;;;16.40;65.90;;;;;;4190765;28;20052;-60
2022/02/01 11:18:54;;;;;;;1.65;0.85;;;16.40;65.70;;;;;;4177288;28;20060;-60
2022/02/01 11:21:16;;;;;;;2.42;1.02;;;16.50;65.50;;;;;;4175239;28;20044;-60
2022/02/01 11:23:48;;;;;;;1.23;0.95;;;16.50;65.20;;;;;;4175389;28;20044;-60
2022/02/01 11:26:25;;;;;;;1.70;0.95;;;16.50;65.10;;;;;;4175398;28;20053;-60
2022/02/01 11:29:12;;;;;;;3.78;0.93;;;16.50;65.20;;;;;;4175339;28;20049;-60
2022/02/01 11:31:34;;;;;;;2.75;1.10;;;16.50;65.40;;;;;;4177089;28;20052;-60
2022/02/01 11:33:58;;;;;;;2.15;1.10;;;16.50;65.60;;;;;;4178366;28;20413;-60
2022/02/01 11:36:20;;;;;;;2.80;0.90;;;16.50;65.50;;;;;;4178891;28;20056;-60
2022/02/01 11:38:52;;;;;;;3.33;1.50;;;16.50;65.40;;;;;;4178676;28;20125;-60
2022/02/01 11:41:14;;;;;;;;;;;16.50;65.30;;;;;;4178820;28;20041;-60
2022/02/01 11:43:36;;;;;;;;;;;16.50;65.40;;;;;;4179015;28;20451;-60
2022/02/01 11:46:01;;;;;;;3.83;1.48;;;16.50;66.40;;;;;;4178616;28;19920;-60
2022/02/01 11:48:25;;;;;;;3.08;1.00;;;16.40;65.60;;;;;;4177772;28;20048;-60
2022/02/01 11:50:52;;;;;;;4.70;1.50;;;16.40;65.80;;;;;;4178328;28;20045;-60
2022/02/01 11:53:23;;;;;;;5.05;2.30;;;16.40;65.80;;;;;;4178335;28;20049;-60
2022/02/01 11:55:47;;;;;;;4.10;1.50;;;16.40;65.70;;;;;;4178053;28;20049;-60
2022/02/01 11:58:09;;;;;;;7.35;1.90;;;16.40;65.70;;;;;;4178115;28;20049;-59
2022/02/01 12:00:39;;;;;;;5.70;1.40;;;16.40;65.80;;;;;;4178317;28;20064;-60
2022/02/01 12:03:03;;;;;;;3.67;1.05;;;16.40;66.00;;;;;;4181941;28;20052;-60
2022/02/01 12:05:29;;;;;;;5.90;1.67;;;16.40;66.00;;;;;;4194591;28;20227;-60
2022/02/01 12:08:04;;;;;;;2.97;1.33;;;16.50;65.90;;;;;;4194887;28;20098;-60
2022/02/01 12:10:26;;;;;;;3.22;1.20;;;16.50;65.60;;;;;;4194431;28;20071;-60
2022/02/01 12:12:48;;;;;;;3.03;1.35;;;16.50;66.40;;;;;;4189804;28;20488;-60
2022/02/01 12:15:10;;;;;;;3.53;1.17;;;16.50;65.50;;;;;;4194854;28;20043;-60
2022/02/01 12:17:37;;;;;;;4.22;1.35;;;16.50;65.50;;;;;;4194582;28;20106;-60
2022/02/01 12:20:04;;;;;;;6.07;1.20;;;16.50;65.60;;;;;;4194437;28;20084;-60
2022/02/01 12:22:34;;;;;;;7.07;1.83;;;16.50;65.50;;;;;;4194167;28;20144;-60
2022/02/01 12:25:04;;;;;;;6.22;1.48;;;16.50;65.50;;;;;;4194295;28;20493;-60
2022/02/01 12:27:34;;;;;;;5.18;1.80;;;16.50;65.60;;;;;;4180697;28;20116;-60
2022/02/01 12:30:00;;;;;;;5.95;1.42;;;16.50;65.60;;;;;;4177518;28;20424;-60
2022/02/01 12:32:22;;;;;;;5.68;1.75;;;16.50;65.90;;;;;;4177778;28;20068;-60
2022/02/01 12:34:43;;;;;;;11.15;2.33;;;16.50;65.90;;;;;;4177821;28;20056;-60
2022/02/01 12:37:06;;;;;;;8.27;2.17;;;16.50;65.80;;;;;;4177692;28;20044;-60
2022/02/01 12:39:32;;;;;;;10.65;2.67;;;16.50;65.70;;;;;;4176159;28;20084;-60
2022/02/01 12:42:01;;;;;;;9.85;3.10;;;16.50;65.60;;;;;;4177088;28;20408;-60
2022/02/01 12:47:07;;;;;;;14.07;2.60;;;16.50;65.70;;;;;;4176070;28;20060;-60
2022/02/01 12:49:36;;;;;;;12.85;3.00;;;16.50;65.80;;;;;;4177198;28;20291;-60
2022/02/01 12:51:58;;;;;;;19.52;3.40;;;16.50;66.00;;;;;;4177510;28;20473;-60
2022/02/01 12:54:26;;;;;;;10.93;2.28;;;16.50;65.80;;;;;;4177441;28;20084;-60
2022/02/01 12:56:49;;;;;;;13.82;2.80;;;16.60;65.70;;;;;;4176991;28;20049;-60
2022/02/01 12:59:39;;;;;;;10.13;2.00;;;16.70;65.30;;;;;;4175759;28;20045;-60
2022/02/01 13:02:05;;;;;;;15.48;2.65;;;16.80;64.80;;;;;;4183521;28;20400;-60
2022/02/01 13:04:29;;;;;;;16.10;2.35;;;16.90;64.40;;;;;;4193737;28;20056;-60
2022/02/01 13:06:53;;;;;;;15.32;3.00;;;16.90;64.00;;;;;;4193151;28;20048;-60
2022/02/01 13:14:55;;;;;;;13.32;2.55;;;16.80;65.20;;;;;;4130873;28;20411;-59
2022/02/01 13:17:38;;;;;;;9.68;2.70;;;16.80;66.20;;;;;;4133925;28;20548;-59
2022/02/01 13:20:07;;;;;;;16.80;3.80;;;16.80;66.20;;;;;;4157602;28;20063;-59
2022/02/01 13:22:52;;;;;;;18.00;3.15;;;16.80;65.80;;;;;;4187447;28;20066;-59
2022/02/01 13:25:14;;;;;;;19.80;3.58;;;16.90;65.70;;;;;;4176318;28;20060;-60
2022/02/01 13:27:36;;;;;;;17.05;4.13;;;16.90;65.40;;;;;;4176545;28;20467;-58
2022/02/01 13:30:01;;;;;;;12.27;2.40;;;16.80;65.40;;;;;;4176051;28;20052;-59
2022/02/01 13:32:23;;;;;;;13.35;2.33;;;16.80;65.60;;;;;;4176760;28;20051;-59
2022/02/01 13:34:45;;;;;;;15.00;2.95;;;16.70;65.70;;;;;;4191571;28;20049;-59
2022/02/01 13:37:09;;;;;;;17.35;3.00;;;16.70;65.80;;;;;;4176372;28;20469;-58
2022/02/01 13:39:33;;;;;;;12.18;3.25;;;16.60;66.10;;;;;;4176303;28;20052;-59
2022/02/01 13:42:00;;;;;;;14.95;4.15;;;16.60;66.20;;;;;;4176302;28;20052;-59